Time;durP1;ratioP1;P1;durP2;ratioP2;P2;SDS_P1;SDS_P2;PMS_P1;PMS_P2;Temp;Humidity;BMP_temperature;BMP_pressure;BME280_temperature;BME280_humidity;BME280_pressure;Samples;Min_cycle;Max_cycle;Signal;HPM_P1;HPM_P2
2021/05/17 00:01:20;;;;;;;14.35;4.15;;;;;;;18.75;100.00;99606.75;1756194;81;21074;-88
2021/05/17 00:03:49;;;;;;;16.82;3.80;;;;;;;18.67;100.00;99605.67;1756290;81;21611;-87
2021/05/17 00:06:17;;;;;;;17.10;3.80;;;;;;;18.52;100.00;99602.23;1756249;81;21046;-87
2021/05/17 00:08:45;;;;;;;15.48;4.50;;;;;;;18.53;100.00;99595.09;1756100;81;21066;-87
2021/05/17 00:11:12;;;;;;;15.75;4.92;;;;;;;18.29;100.00;99586.23;1756114;81;21059;-87
2021/05/17 00:13:38;;;;;;;18.37;4.55;;;;;;;18.34;100.00;99578.42;1755923;81;21046;-87
2021/05/17 00:16:05;;;;;;;20.10;4.62;;;;;;;18.27;100.00;99576.83;1756001;81;21903;-87
2021/05/17 00:18:31;;;;;;;13.55;4.72;;;;;;;18.36;100.00;99582.98;1756283;81;21511;-88
2021/05/17 00:20:57;;;;;;;19.25;4.03;;;;;;;18.30;100.00;99581.61;1751722;81;21033;-87
2021/05/17 00:23:24;;;;;;;17.90;4.40;;;;;;;18.23;100.00;99584.06;1751548;81;21103;-88
2021/05/17 00:25:50;;;;;;;20.17;4.40;;;;;;;18.31;100.00;99584.55;1751335;81;21403;-87
2021/05/17 00:28:17;;;;;;;21.65;5.22;;;;;;;18.20;100.00;99581.44;1751721;81;21542;-87
2021/05/17 00:30:43;;;;;;;22.98;5.53;;;;;;;18.05;100.00;99573.32;1751412;81;21086;-87
2021/05/17 00:33:10;;;;;;;26.27;4.80;;;;;;;18.05;100.00;99573.32;1751344;81;20999;-88
2021/05/17 00:35:36;;;;;;;18.60;5.03;;;;;;;18.02;100.00;99577.28;1753208;81;21218;-88
2021/05/17 00:38:02;;;;;;;20.50;4.67;;;;;;;18.10;100.00;99572.33;1756237;81;21591;-88
2021/05/17 00:40:29;;;;;;;21.87;5.25;;;;;;;18.08;100.00;99574.02;1756480;81;21022;-88
2021/05/17 00:42:55;;;;;;;22.22;5.25;;;;;;;18.07;100.00;99565.61;1756184;81;21055;-88
2021/05/17 00:45:23;;;;;;;21.62;4.72;;;;;;;18.07;100.00;99569.70;1756233;81;21039;-89
2021/05/17 00:47:53;;;;;;;21.68;5.22;;;;;;;18.19;100.00;99573.04;1756222;81;21122;-88
2021/05/17 00:50:24;;;;;;;31.20;5.95;;;;;;;18.22;100.00;99570.21;1756124;81;21090;-87
2021/05/17 00:52:53;;;;;;;30.45;5.85;;;;;;;18.31;100.00;99576.38;1634268;86;21124;-88
2021/05/17 00:55:20;;;;;;;29.80;5.30;;;;;;;18.34;100.00;99586.03;1634240;87;21048;-88
2021/05/17 00:57:46;;;;;;;28.47;6.05;;;;;;;18.51;100.00;99597.34;1634122;87;21079;-88
2021/05/17 01:00:16;;;;;;;27.13;5.95;;;;;;;18.57;100.00;99616.45;1637818;86;21598;-88
2021/05/17 01:02:42;;;;;;;20.68;5.30;;;;;;;18.66;100.00;99627.28;1642932;86;21183;-88
2021/05/17 01:05:11;;;;;;;25.48;5.90;;;;;;;18.75;100.00;99643.59;1642559;87;21050;-88
2021/05/17 01:07:38;;;;;;;36.40;6.25;;;;;;;18.78;100.00;99645.65;1641650;87;21764;-88
2021/05/17 01:10:06;;;;;;;36.85;5.78;;;;;;;18.75;100.00;99632.11;1643169;87;21149;-87
2021/05/17 01:12:35;;;;;;;45.12;5.80;;;;;;;18.85;100.00;99632.23;1641133;86;21027;-88
2021/05/17 01:15:03;;;;;;;36.80;7.37;;;;;;;18.95;100.00;99630.44;1642774;86;20994;-88
2021/05/17 01:17:29;;;;;;;41.18;6.30;;;;;;;19.04;100.00;99638.53;1643738;87;21065;-88
2021/05/17 01:20:10;;;;;;;32.50;5.60;;;;;;;19.05;100.00;99643.63;1643357;86;21030;-88
2021/05/17 01:23:01;;;;;;;36.73;6.85;;;;;;;19.14;100.00;99658.55;1601783;89;21084;-88
2021/05/17 01:25:26;;;;;;;33.08;5.80;;;;;;;19.19;100.00;99663.00;1547184;92;21127;-88
2021/05/17 01:27:53;;;;;;;38.23;6.97;;;;;;;19.27;100.00;99646.51;1538572;92;21123;-88
2021/05/17 01:30:22;;;;;;;44.95;6.87;;;;;;;19.33;100.00;99642.98;1535890;93;21044;-88
2021/05/17 01:32:52;;;;;;;37.23;6.53;;;;;;;19.38;100.00;99640.00;1535900;93;21108;-88
2021/05/17 01:35:19;;;;;;;31.62;6.25;;;;;;;19.39;100.00;99640.24;1535751;92;21119;-89
2021/05/17 01:37:45;;;;;;;35.95;6.62;;;;;;;19.42;100.00;99627.84;1536156;93;21871;-89
2021/05/17 01:40:18;;;;;;;41.37;6.53;;;;;;;19.47;100.00;99616.65;1535425;93;21156;-88
2021/05/17 01:42:42;;;;;;;39.63;6.17;;;;;;;19.51;100.00;99618.37;1532999;93;21099;-89
2021/05/17 01:45:11;;;;;;;29.12;6.47;;;;;;;19.45;100.00;99632.62;1535833;93;21095;-88
2021/05/17 01:47:43;;;;;;;28.80;6.45;;;;;;;19.42;100.00;99642.29;1535922;93;21536;-89
2021/05/17 01:50:13;;;;;;;33.50;6.30;;;;;;;19.34;100.00;99657.44;1595628;88;21158;-88
2021/05/17 01:52:39;;;;;;;30.12;5.80;;;;;;;19.21;100.00;99679.29;1627200;88;21061;-88
2021/05/17 01:55:10;;;;;;;24.60;6.35;;;;;;;19.23;100.00;99672.10;1627672;88;21092;-89
2021/05/17 01:57:36;;;;;;;44.55;6.30;;;;;;;19.24;100.00;99666.89;1581430;90;21085;-89
2021/05/17 02:00:07;;;;;;;39.38;6.62;;;;;;;19.03;100.00;99647.30;1581223;90;21145;-88
2021/05/17 02:02:36;;;;;;;30.77;7.03;;;;;;;18.96;100.00;99652.50;1581402;89;21267;-89
2021/05/17 02:05:04;;;;;;;33.98;6.62;;;;;;;18.98;100.00;99654.33;1581193;90;21040;-89
2021/05/17 02:07:30;;;;;;;31.37;7.30;;;;;;;18.95;100.00;99643.30;1581320;90;21141;-88
2021/05/17 02:09:59;;;;;;;35.48;6.90;;;;;;;18.93;100.00;99640.10;1581296;90;21653;-87
2021/05/17 02:12:26;;;;;;;31.40;7.78;;;;;;;18.59;100.00;99629.20;1581341;90;21076;-88
2021/05/17 02:14:56;;;;;;;26.00;6.22;;;;;;;18.60;100.00;99638.98;1581303;90;21125;-88
2021/05/17 02:17:24;;;;;;;28.92;6.47;;;;;;;18.64;100.00;99633.64;1581191;90;21711;-88
2021/05/17 02:19:51;;;;;;;28.25;6.30;;;;;;;18.69;100.00;99615.69;1581187;90;21104;-89
2021/05/17 02:22:20;;;;;;;46.00;8.03;;;;;;;18.59;100.00;99608.74;1598859;89;21120;-87
2021/05/17 02:24:47;;;;;;;37.30;6.58;;;;;;;18.37;100.00;99597.64;1560612;89;21119;-89
2021/05/17 02:27:17;;;;;;;42.48;7.53;;;;;;;18.34;100.00;99573.77;1603801;89;21104;-88
2021/05/17 02:29:45;;;;;;;42.95;7.40;;;;;;;18.39;100.00;99563.22;1603853;89;21092;-89
2021/05/17 02:32:21;;;;;;;34.35;6.97;;;;;;;18.44;100.00;99554.00;1603904;89;21057;-88
2021/05/17 02:34:48;;;;;;;34.65;7.92;;;;;;;18.42;100.00;99550.84;1597727;89;21144;-88
2021/05/17 02:37:15;;;;;;;40.17;7.65;;;;;;;18.39;100.00;99549.58;1599138;89;21600;-88
2021/05/17 02:39:41;;;;;;;37.50;7.22;;;;;;;18.30;100.00;99555.12;1599328;89;21140;-88
2021/05/17 02:42:13;;;;;;;57.45;7.85;;;;;;;18.43;100.00;99562.77;1599076;89;21092;-88
2021/05/17 02:44:40;;;;;;;52.13;8.18;;;;;;;18.57;100.00;99563.82;1596322;89;21064;-88
2021/05/17 02:47:08;;;;;;;42.20;7.00;;;;;;;18.73;100.00;99558.48;1598905;89;21241;-88
2021/05/17 02:49:35;;;;;;;45.00;7.15;;;;;;;18.76;100.00;99581.83;1599114;89;21020;-88
2021/05/17 02:52:02;;;;;;;49.70;8.05;;;;;;;18.71;100.00;99575.79;1598861;89;21148;-87
2021/05/17 02:54:36;;;;;;;47.88;7.72;;;;;;;18.59;100.00;99568.38;1599016;89;21245;-87
2021/05/17 02:57:10;;;;;;;;;;;;;;;18.50;100.00;99544.46;1598253;89;21129;-87
2021/05/17 03:03:00;;;;;;;68.75;10.13;;;;;;;18.40;100.00;99523.88;1600409;88;21060;-87
2021/05/17 03:05:28;;;;;;;70.97;9.15;;;;;;;18.40;100.00;99508.88;1600369;88;21837;-88
2021/05/17 03:08:02;;;;;;;79.32;11.22;;;;;;;18.58;100.00;99507.52;1596966;89;21253;-86
2021/05/17 03:10:31;;;;;;;75.40;10.00;;;;;;;18.53;100.00;99510.50;1562450;90;21554;-87
2021/05/17 03:13:01;;;;;;;60.33;9.40;;;;;;;18.65;100.00;99514.34;1565330;91;21117;-86
2021/05/17 03:15:28;;;;;;;67.58;9.88;;;;;;;18.77;100.00;99529.42;1565597;91;21129;-87
2021/05/17 03:17:56;;;;;;;77.60;10.32;;;;;;;18.98;100.00;99534.19;1565143;91;21154;-87
2021/05/17 03:20:25;;;;;;;78.78;9.53;;;;;;;19.22;100.00;99529.84;1545251;91;21230;-87
2021/05/17 03:22:54;;;;;;;89.95;10.35;;;;;;;19.36;100.00;99539.05;1569030;90;21145;-87
2021/05/17 03:25:31;;;;;;;66.95;11.38;;;;;;;19.69;100.00;99545.70;1566250;91;21041;-87
2021/05/17 03:27:56;;;;;;;91.20;12.45;;;;;;;19.93;100.00;99542.87;1521623;93;21080;-87
2021/05/17 03:30:22;;;;;;;82.40;11.30;;;;;;;19.81;100.00;99529.83;1521627;93;21611;-85
2021/05/17 03:32:48;;;;;;;92.75;12.93;;;;;;;19.77;100.00;99512.55;1521331;94;21232;-88
2021/05/17 03:35:16;;;;;;;100.72;12.93;;;;;;;20.09;100.00;99519.68;1521804;93;20961;-87
2021/05/17 03:37:43;;;;;;;124.85;14.25;;;;;;;20.56;100.00;99532.65;1521337;93;21767;-87
2021/05/17 03:40:10;;;;;;;117.28;13.93;;;;;;;20.92;100.00;99549.95;1521639;93;21120;-87
2021/05/17 03:42:37;;;;;;;139.47;15.32;;;;;;;21.56;93.40;99572.58;1521524;94;21200;-87
2021/05/17 03:45:07;;;;;;;117.40;14.93;;;;;;;22.11;90.30;99595.23;1521588;93;21214;-88
2021/05/17 03:47:33;;;;;;;116.53;13.30;;;;;;;22.72;85.73;99597.77;1416013;100;21214;-88
2021/05/17 03:50:00;;;;;;;93.17;12.80;;;;;;;23.44;83.38;99612.11;1418283;99;21887;-88
2021/05/17 03:52:26;;;;;;;116.05;12.80;;;;;;;23.93;69.04;99601.58;1418620;99;21221;-88
2021/05/17 03:54:52;;;;;;;117.37;12.95;;;;;;;24.19;71.94;99592.45;1424472;100;21193;-87
2021/05/17 03:57:18;;;;;;;107.07;12.70;;;;;;;24.12;64.60;99579.18;1424923;100;21175;-86
2021/05/17 03:59:45;;;;;;;105.90;13.20;;;;;;;23.97;64.29;99582.36;1425501;100;21163;-89
2021/05/17 04:04:51;;;;;;;105.17;13.48;;;;;;;24.38;62.39;99581.83;1379295;102;21225;-89
2021/05/17 04:14:59;;;;;;;141.62;16.90;;;;;;;25.26;56.01;99600.95;1404999;102;21196;-88
2021/05/17 04:17:25;;;;;;;147.78;18.37;;;;;;;24.96;56.38;99598.92;1404745;102;21165;-88
2021/05/17 04:19:50;;;;;;;147.65;15.72;;;;;;;24.88;58.76;99608.53;1405281;102;21319;-88
2021/05/17 04:22:17;;;;;;;147.17;15.38;;;;;;;24.43;58.37;99604.14;1407551;101;21568;-89
2021/05/17 04:24:43;;;;;;;114.65;14.55;;;;;;;25.10;55.55;99612.83;1421093;100;21124;-87
2021/05/17 04:27:08;;;;;;;127.22;15.08;;;;;;;25.12;56.40;99599.46;1431474;100;21659;-88
2021/05/17 04:29:35;;;;;;;148.35;18.50;;;;;;;25.13;56.46;99595.52;1431319;100;21038;-87
2021/05/17 04:32:01;;;;;;;140.22;17.92;;;;;;;25.06;55.07;99572.02;1431219;100;21196;-88
2021/05/17 04:34:29;;;;;;;159.63;17.57;;;;;;;24.38;58.72;99565.30;1431256;100;21243;-87
2021/05/17 04:36:54;;;;;;;184.13;19.55;;;;;;;23.96;60.12;99559.55;1430791;98;21151;-86
2021/05/17 04:39:20;;;;;;;125.75;15.38;;;;;;;24.73;57.87;99550.30;1414433;100;20986;-84
2021/05/17 04:41:46;;;;;;;137.10;18.10;;;;;;;24.83;54.17;99557.88;1430853;100;21185;-84
2021/05/17 04:44:12;;;;;;;155.43;16.10;;;;;;;24.73;55.27;99555.81;1430690;100;21748;-85
2021/05/17 04:46:38;;;;;;;146.07;15.93;;;;;;;25.05;52.57;99547.80;1431043;100;21013;-86
2021/05/17 04:49:04;;;;;;;148.87;16.90;;;;;;;24.96;53.98;99539.06;1430338;98;20962;-86
2021/05/17 04:51:30;;;;;;;134.27;16.70;;;;;;;24.98;53.86;99529.84;1476617;95;20954;-86
2021/05/17 04:53:56;;;;;;;156.67;17.25;;;;;;;24.71;55.15;99520.98;1494392;95;21000;-85
2021/05/17 04:56:23;;;;;;;144.25;17.80;;;;;;;24.79;53.70;99506.06;1491476;96;21167;-85
2021/05/17 04:58:50;;;;;;;201.32;18.92;;;;;;;24.37;55.99;99476.98;1494415;95;21104;-85
2021/05/17 05:01:16;;;;;;;168.05;18.45;;;;;;;25.15;54.84;99478.19;1564355;84;21074;-87
2021/05/17 05:03:42;;;;;;;149.97;17.48;;;;;;;24.38;54.86;99464.78;1705474;83;20971;-85
2021/05/17 05:06:08;;;;;;;172.10;16.80;;;;;;;23.49;56.80;99467.39;1699145;84;20951;-85
2021/05/17 05:08:35;;;;;;;152.30;16.77;;;;;;;22.79;57.03;99483.09;1691988;82;21597;-89
2021/05/17 05:11:00;;;;;;;178.05;17.62;;;;;;;22.87;58.54;99458.69;1692197;83;21590;-86
2021/05/17 05:13:26;;;;;;;161.07;17.05;;;;;;;22.61;58.77;99479.48;1694944;83;20860;-86
2021/05/17 05:15:53;;;;;;;167.10;16.37;;;;;;;22.98;59.63;99441.02;1691592;84;21633;-86
2021/05/17 05:18:20;;;;;;;195.90;18.77;;;;;;;23.36;57.63;99439.94;1695739;83;21637;-85
2021/05/17 05:20:47;;;;;;;166.07;17.55;;;;;;;23.57;54.94;99456.69;1709684;83;21123;-86
2021/05/17 05:23:18;;;;;;;165.20;17.73;;;;;;;24.60;50.50;99460.27;1711196;83;21108;-86
2021/05/17 05:28:24;;;;;;;160.55;18.85;;;;;;;26.05;45.25;99479.90;1588254;88;21135;-85
2021/05/17 05:31:05;;;;;;;195.72;18.15;;;;;;;26.01;45.29;99470.83;1586581;87;21652;-87
2021/05/17 05:33:27;;;;;;;156.05;16.87;;;;;;;25.65;44.87;99456.92;1619166;87;21708;-84
2021/05/17 05:35:53;;;;;;;177.50;17.80;;;;;;;25.83;45.15;99488.14;1618865;88;20910;-87
2021/05/17 05:38:20;;;;;;;180.75;18.98;;;;;;;26.13;43.94;99493.92;1625108;88;21102;-87
2021/05/17 05:40:46;;;;;;;164.20;19.37;;;;;;;26.58;41.60;99514.31;1625033;88;21609;-85
2021/05/17 05:43:12;;;;;;;160.48;19.92;;;;;;;25.77;43.45;99520.63;1594435;89;21151;-86
2021/05/17 05:45:45;;;;;;;159.32;17.32;;;;;;;26.39;43.04;99516.85;1607890;88;21577;-84
2021/05/17 05:48:07;;;;;;;163.70;18.55;;;;;;;26.64;41.89;99512.13;1625103;88;21021;-85
2021/05/17 05:50:33;;;;;;;163.75;18.75;;;;;;;25.70;44.13;99506.78;1603800;88;21274;-84
2021/05/17 05:52:58;;;;;;;157.35;15.98;;;;;;;25.51;44.02;99509.28;1610630;88;20927;-84
2021/05/17 05:55:25;;;;;;;184.07;17.23;;;;;;;25.26;44.26;99498.91;1607230;88;20951;-84
2021/05/17 05:57:51;;;;;;;171.37;17.23;;;;;;;26.30;42.96;99500.66;1618065;87;21340;-86
2021/05/17 06:00:19;;;;;;;175.80;20.23;;;;;;;26.57;42.59;99513.53;1603093;88;21726;-86
2021/05/17 06:02:45;;;;;;;166.80;18.40;;;;;;;27.01;41.97;99499.86;1608321;88;21128;-85
2021/05/17 06:05:12;;;;;;;193.95;19.55;;;;;;;27.24;41.47;99504.17;1626673;85;21073;-87
2021/05/17 06:07:38;;;;;;;139.95;15.28;;;;;;;27.01;42.76;99504.02;1635230;86;21045;-86
2021/05/17 06:10:06;;;;;;;169.57;18.70;;;;;;;26.27;42.49;99520.78;1633645;85;21081;-85
2021/05/17 06:12:32;;;;;;;142.60;18.32;;;;;;;27.43;41.50;99543.85;1620102;86;21142;-85
2021/05/17 06:15:02;;;;;;;169.13;19.70;;;;;;;28.49;39.95;99579.80;1654962;85;21074;-86
2021/05/17 06:17:27;;;;;;;178.32;19.90;;;;;;;30.21;37.37;99608.09;1655862;85;21126;-85
2021/05/17 06:19:54;;;;;;;145.17;20.15;;;;;;;31.09;35.31;99629.45;1655046;85;21160;-83
2021/05/17 06:22:23;;;;;;;172.98;19.37;;;;;;;31.01;34.07;99612.67;1667382;84;21864;-85
2021/05/17 06:24:49;;;;;;;168.10;19.05;;;;;;;31.51;33.93;99607.64;1691960;83;21499;-84
2021/05/17 06:27:16;;;;;;;171.75;17.92;;;;;;;32.09;32.87;99615.64;1700653;83;21078;-84
2021/05/17 06:29:44;;;;;;;177.45;18.17;;;;;;;30.68;34.22;99612.96;1710238;83;21066;-84
2021/05/17 06:32:12;;;;;;;154.72;17.40;;;;;;;29.89;35.50;99602.92;1710293;83;21063;-84
2021/05/17 06:34:40;;;;;;;186.15;19.10;;;;;;;28.42;37.98;99600.05;1710438;83;21841;-85
2021/05/17 06:37:07;;;;;;;144.93;16.23;;;;;;;27.97;39.30;99610.13;1710855;83;21593;-84
2021/05/17 06:39:33;;;;;;;187.45;17.90;;;;;;;26.72;43.31;99607.70;1712036;83;20974;-83
2021/05/17 06:42:00;;;;;;;162.00;19.45;;;;;;;26.59;43.79;99612.61;1711772;83;21065;-84
2021/05/17 06:44:26;;;;;;;200.85;18.20;;;;;;;26.48;44.00;99638.83;1711940;83;21073;-84
2021/05/17 06:46:53;;;;;;;167.28;21.82;;;;;;;26.83;42.90;99636.75;1710229;83;21240;-84
2021/05/17 06:49:19;;;;;;;183.55;20.00;;;;;;;26.59;44.05;99617.58;1712065;83;21050;-85
2021/05/17 06:51:46;;;;;;;145.75;16.57;;;;;;;25.89;45.46;99625.80;1712205;83;21026;-87
2021/05/17 06:54:15;;;;;;;169.02;17.07;;;;;;;25.66;45.87;99628.20;1712125;83;21050;-86
2021/05/17 06:56:47;;;;;;;162.37;18.23;;;;;;;25.83;45.58;99624.78;1712088;83;21576;-86
2021/05/17 06:59:16;;;;;;;173.25;18.45;;;;;;;25.36;46.97;99609.90;1708430;83;21085;-86
2021/05/17 07:01:42;;;;;;;183.80;18.37;;;;;;;25.25;49.26;99602.13;1711774;83;21582;-86
2021/05/17 07:04:16;;;;;;;156.20;17.70;;;;;;;26.19;47.83;99611.12;1668495;85;21566;-86
2021/05/17 07:06:57;;;;;;;141.12;17.57;;;;;;;27.40;45.58;99593.86;1704030;82;21653;-86
2021/05/17 07:12:13;;;;;;;159.37;17.02;;;;;;;27.92;42.54;99618.88;1699471;83;21052;-86
2021/05/17 07:14:38;;;;;;;169.20;17.17;;;;;;;28.23;43.17;99619.31;1710068;83;21575;-86
2021/05/17 07:17:06;;;;;;;152.45;18.42;;;;;;;29.24;42.41;99619.45;1709924;83;21008;-86
2021/05/17 07:19:32;;;;;;;161.62;17.55;;;;;;;29.11;41.42;99616.98;1709626;83;21674;-86
2021/05/17 07:24:45;;;;;;;158.80;18.32;;;;;;;30.44;39.60;99614.91;1701771;83;21214;-86
2021/05/17 07:27:12;;;;;;;145.92;17.00;;;;;;;31.83;38.39;99607.01;1700769;84;21102;-88
2021/05/17 07:29:39;;;;;;;159.78;17.77;;;;;;;33.23;35.50;99602.44;1678960;84;21154;-87
2021/05/17 07:32:08;;;;;;;155.65;19.35;;;;;;;33.20;35.06;99618.68;1701157;84;21111;-87
2021/05/17 07:34:36;;;;;;;151.30;17.45;;;;;;;33.84;33.43;99629.54;1701038;84;21067;-87
2021/05/17 07:37:05;;;;;;;140.00;17.60;;;;;;;33.52;34.72;99625.46;1700980;84;21126;-87
2021/05/17 07:39:31;;;;;;;152.27;15.75;;;;;;;35.19;31.98;99636.42;1700408;83;21141;-87
2021/05/17 07:41:57;;;;;;;153.78;17.55;;;;;;;35.33;31.04;99637.95;1723295;83;21099;-86
2021/05/17 07:44:23;;;;;;;142.43;17.25;;;;;;;33.32;34.08;99640.92;1723201;83;20951;-84
2021/05/17 07:46:50;;;;;;;139.52;17.80;;;;;;;33.74;33.92;99630.64;1722779;83;21479;-84
2021/05/17 07:49:23;;;;;;;145.15;16.93;;;;;;;34.84;33.14;99630.58;1723644;82;21202;-85
2021/05/17 07:51:47;;;;;;;154.82;17.23;;;;;;;35.31;31.08;99640.42;1719731;83;21202;-84
2021/05/17 07:54:19;;;;;;;158.63;18.02;;;;;;;35.06;32.62;99628.65;1723557;83;21143;-84
2021/05/17 07:56:45;;;;;;;161.97;17.82;;;;;;;35.68;31.39;99623.91;1723615;83;21050;-85
2021/05/17 07:59:11;;;;;;;154.90;18.10;;;;;;;34.47;32.22;99639.28;1723502;83;21161;-85
2021/05/17 08:01:38;;;;;;;143.43;16.57;;;;;;;33.61;33.57;99640.36;1723390;83;21303;-85
2021/05/17 08:04:04;;;;;;;170.62;17.55;;;;;;;33.55;33.86;99642.13;1723678;83;21625;-85
2021/05/17 08:06:30;;;;;;;160.43;19.55;;;;;;;32.55;35.95;99651.53;1723709;83;21567;-85
2021/05/17 08:08:56;;;;;;;156.18;18.25;;;;;;;32.72;35.38;99653.73;1723665;82;21114;-87
2021/05/17 08:11:22;;;;;;;161.60;17.62;;;;;;;31.71;36.97;99645.85;1723403;82;21114;-87
2021/05/17 08:13:49;;;;;;;161.18;19.15;;;;;;;31.30;37.44;99651.95;1693772;82;21665;-87
2021/05/17 08:16:15;;;;;;;170.72;16.97;;;;;;;31.01;37.97;99651.64;1755304;81;21650;-83
2021/05/17 08:18:43;;;;;;;153.70;17.02;;;;;;;30.36;40.02;99655.95;1752067;81;21050;-84
2021/05/17 08:21:10;;;;;;;145.32;18.42;;;;;;;30.72;40.44;99653.44;1756157;81;21654;-84
2021/05/17 08:23:37;;;;;;;146.57;17.73;;;;;;;30.86;40.10;99653.08;1756091;81;21057;-83
2021/05/17 08:26:07;;;;;;;158.52;17.75;;;;;;;30.71;41.13;99653.88;1756496;81;21218;-83
2021/05/17 08:28:38;;;;;;;139.90;17.80;;;;;;;31.24;39.82;99642.52;1756181;81;21337;-85
2021/05/17 08:31:04;;;;;;;185.75;19.15;;;;;;;31.55;39.35;99652.13;1756173;81;21150;-84
2021/05/17 08:33:32;;;;;;;158.05;18.45;;;;;;;31.11;40.53;99642.92;1731386;81;21573;-84
2021/05/17 08:35:58;;;;;;;147.37;16.30;;;;;;;30.74;41.92;99655.20;1752334;81;21188;-84
2021/05/17 08:38:25;;;;;;;132.97;17.45;;;;;;;31.00;42.13;99655.03;1743654;82;21145;-84
2021/05/17 08:40:51;;;;;;;154.87;17.48;;;;;;;31.30;42.02;99656.73;1737993;81;21544;-84
2021/05/17 08:43:17;;;;;;;149.55;17.37;;;;;;;32.04;41.74;99662.95;1735977;81;21087;-84
2021/05/17 08:45:46;;;;;;;145.55;18.57;;;;;;;31.58;42.57;99663.81;1735936;81;21062;-84
2021/05/17 08:48:13;;;;;;;146.85;17.55;;;;;;;32.81;42.19;99655.31;1769208;80;21585;-84
2021/05/17 08:50:40;;;;;;;133.12;17.30;;;;;;;33.22;42.02;99655.34;1775361;80;21049;-84
2021/05/17 08:53:06;;;;;;;138.88;15.75;;;;;;;33.57;40.91;99645.27;1775409;80;21589;-84
2021/05/17 08:55:33;;;;;;;120.13;15.38;;;;;;;34.35;39.08;99643.64;1775566;80;21033;-84
2021/05/17 08:57:59;;;;;;;110.22;14.58;;;;;;;34.89;38.66;99637.80;1775770;80;21038;-84
2021/05/17 09:00:25;;;;;;;90.62;14.33;;;;;;;35.02;38.67;99648.97;1775712;80;20961;-84
2021/05/17 09:02:52;;;;;;;97.20;13.08;;;;;;;35.48;37.89;99641.05;1775362;80;21021;-86
2021/05/17 09:05:26;;;;;;;98.72;12.05;;;;;;;35.43;37.32;99647.22;1775500;80;21006;-82
2021/05/17 09:07:55;;;;;;;96.12;12.78;;;;;;;34.25;39.10;99643.36;1775300;80;20955;-82
2021/05/17 09:10:36;;;;;;;117.67;14.45;;;;;;;33.33;40.59;99641.89;1767239;80;21091;-82
2021/05/17 09:13:11;;;;;;;114.28;13.22;;;;;;;33.50;40.46;99634.86;1772825;80;21061;-84
2021/05/17 09:15:45;;;;;;;108.52;14.05;;;;;;;33.90;39.72;99638.17;1775743;80;21725;-84
2021/05/17 09:18:28;;;;;;;90.75;12.53;;;;;;;33.56;41.55;99638.13;1775493;80;21038;-84
2021/05/17 09:20:59;;;;;;;90.53;12.75;;;;;;;33.62;41.36;99629.95;1652004;86;21061;-84
2021/05/17 09:23:31;;;;;;;86.20;13.05;;;;;;;34.06;41.61;99622.76;1637876;86;21148;-84
2021/05/17 09:26:14;;;;;;;92.57;12.78;;;;;;;34.64;40.56;99619.00;1660431;86;21021;-84
2021/05/17 09:28:46;;;;;;;97.57;12.90;;;;;;;36.02;36.57;99617.45;1660313;86;21061;-84
2021/05/17 09:31:24;;;;;;;94.00;12.80;;;;;;;36.03;37.78;99619.63;1622319;87;21644;-84
2021/05/17 09:33:56;;;;;;;105.45;13.48;;;;;;;36.66;35.98;99613.44;1607035;88;21028;-86
2021/05/17 09:39:17;;;;;;;72.47;12.28;;;;;;;36.14;35.71;99614.43;1511740;94;21329;-86
2021/05/17 09:41:55;;;;;;;90.65;10.75;;;;;;;35.25;37.07;99620.59;1509313;95;21151;-86
2021/05/17 09:44:24;;;;;;;120.33;12.45;;;;;;;35.09;37.44;99624.16;1512134;93;21563;-82
2021/05/17 09:47:13;;;;;;;89.15;13.83;;;;;;;34.55;38.66;99621.70;1509245;95;21149;-82
2021/05/17 09:49:48;;;;;;;107.37;12.75;;;;;;;34.57;39.17;99623.44;1509421;93;21722;-82
2021/05/17 09:52:29;;;;;;;92.57;11.08;;;;;;;34.82;38.96;99619.20;1509294;93;21162;-86
2021/05/17 09:55:06;;;;;;;99.22;12.33;;;;;;;35.07;37.87;99616.23;1509130;95;21884;-82
2021/05/17 09:57:36;;;;;;;95.70;12.35;;;;;;;34.67;38.83;99617.32;1508975;95;21147;-81
2021/05/17 10:00:24;;;;;;;86.08;11.05;;;;;;;35.18;38.11;99616.66;1509277;95;21048;-81
2021/05/17 10:02:53;;;;;;;90.47;11.70;;;;;;;34.72;38.44;99610.55;1490680;95;21745;-82
2021/05/17 10:05:25;;;;;;;83.62;12.10;;;;;;;34.56;38.44;99619.05;1491246;94;21238;-82
2021/05/17 10:07:58;;;;;;;114.77;12.07;;;;;;;34.52;38.85;99602.97;1488876;94;21156;-81
2021/05/17 10:10:28;;;;;;;86.65;11.73;;;;;;;34.33;38.95;99608.34;1451478;98;21221;-82
2021/05/17 10:12:57;;;;;;;81.12;10.35;;;;;;;33.83;39.78;99607.02;1438329;98;21152;-82
2021/05/17 10:15:27;;;;;;;90.05;11.10;;;;;;;33.34;41.08;99617.53;1450841;98;21111;-82
2021/05/17 10:17:53;;;;;;;75.12;9.88;;;;;;;33.11;40.98;99624.89;1504580;95;21099;-82
2021/05/17 10:20:23;;;;;;;77.05;9.85;;;;;;;33.04;41.62;99632.06;1528756;92;21062;-82
2021/05/17 10:22:52;;;;;;;75.28;9.98;;;;;;;33.31;41.48;99621.20;1552488;92;21112;-82
2021/05/17 10:25:28;;;;;;;51.70;9.45;;;;;;;33.48;41.65;99615.75;1506763;92;21147;-82
2021/05/17 10:27:58;;;;;;;60.38;9.60;;;;;;;33.91;40.65;99626.55;1501125;94;21166;-83
2021/05/17 10:30:29;;;;;;;61.63;9.00;;;;;;;33.69;41.07;99622.79;1537184;92;21114;-82
2021/05/17 10:33:05;;;;;;;60.43;8.73;;;;;;;33.70;40.79;99625.75;1462553;96;21116;-82
2021/05/17 10:35:35;;;;;;;56.25;9.63;;;;;;;33.74;41.00;99616.67;1494587;94;21069;-83
2021/05/17 10:38:28;;;;;;;68.35;9.70;;;;;;;33.89;40.64;99616.42;1479650;96;21135;-82
2021/05/17 10:44:07;;;;;;;62.67;9.05;;;;;;;33.52;40.28;99629.03;1364831;105;21205;-83
2021/05/17 10:46:39;;;;;;;56.95;8.28;;;;;;;32.96;41.38;99623.03;1364911;105;21192;-83
2021/05/17 10:49:35;;;;;;;69.22;9.90;;;;;;;32.73;42.25;99632.97;1364511;104;21116;-83
2021/05/17 10:52:10;;;;;;;50.60;8.23;;;;;;;32.34;42.71;99629.05;1368299;104;21118;-83
2021/05/17 10:54:43;;;;;;;38.20;7.60;;;;;;;32.02;43.70;99634.70;1368828;104;21256;-83
2021/05/17 10:57:33;;;;;;;38.00;7.67;;;;;;;32.17;42.62;99628.83;1345192;106;21178;-83
2021/05/17 11:02:42;;;;;;;45.78;7.20;;;;;;;31.68;46.45;99637.16;1344858;106;21251;-82
2021/05/17 11:05:21;;;;;;;40.52;7.97;;;;;;;32.26;46.44;99636.00;1345200;106;21110;-83
2021/05/17 11:07:57;;;;;;;45.35;6.67;;;;;;;32.08;46.58;99634.98;1354631;104;21131;-83
2021/05/17 11:10:35;;;;;;;36.65;6.85;;;;;;;32.10;45.05;99639.54;1338932;107;21771;-83
2021/05/17 11:13:12;;;;;;;31.62;7.08;;;;;;;31.94;45.67;99640.86;1351289;106;21314;-83
2021/05/17 11:16:01;;;;;;;44.75;6.95;;;;;;;31.83;46.89;99643.84;1352691;106;21822;-83
2021/05/17 11:18:32;;;;;;;47.78;7.67;;;;;;;31.89;45.56;99643.52;1352713;106;21143;-83
2021/05/17 11:21:15;;;;;;;25.65;7.15;;;;;;;32.12;45.56;99652.42;1324994;107;21152;-83
2021/05/17 11:23:44;;;;;;;;;;;;;;;31.84;45.30;99648.19;1360894;105;21727;-82
2021/05/17 11:26:12;;;;;;;42.95;7.42;;;;;;;31.83;45.95;99648.02;1328117;107;21160;-83
2021/05/17 11:28:45;;;;;;;49.05;8.35;;;;;;;31.65;46.60;99652.52;1377146;104;21165;-83
2021/05/17 11:34:15;;;;;;;37.85;8.73;;;;;;;31.14;50.64;99647.64;1427526;99;21146;-83
2021/05/17 11:36:52;;;;;;;51.88;8.33;;;;;;;31.25;48.98;99648.25;1444190;98;21618;-83
2021/05/17 11:39:25;;;;;;;42.98;7.95;;;;;;;30.93;50.69;99651.56;1426878;99;21999;-83
2021/05/17 11:42:03;;;;;;;39.58;8.35;;;;;;;31.05;51.11;99650.97;1404817;100;21685;-83
2021/05/17 11:44:53;;;;;;;46.53;8.28;;;;;;;31.45;49.85;99654.69;1392426;102;21777;-83
2021/05/17 11:47:26;;;;;;;49.48;9.68;;;;;;;31.38;48.55;99660.37;1355477;104;39553;-83
2021/05/17 11:49:53;;;;;;;34.30;8.00;;;;;;;31.73;48.35;99651.17;1383279;103;21155;-82
2021/05/17 11:52:23;;;;;;;44.60;8.83;;;;;;;31.62;51.00;99656.16;1383170;103;21175;-89
2021/05/17 11:54:56;;;;;;;47.13;10.13;;;;;;;32.08;49.07;99658.69;1392003;102;21154;-86
2021/05/17 11:57:32;;;;;;;46.70;8.73;;;;;;;32.33;47.14;99659.56;1389399;102;21690;-85